sensor_id;sensor_type;location;lat;lon;timestamp;P1;durP1;ratioP1;P2;durP2;ratioP2
2868;SDS011;1442;47.448;8.582;2023-01-15T00:01:36;5.75;;;2.30;;
2868;SDS011;1442;47.448;8.582;2023-01-15T00:04:04;4.40;;;2.30;;
2868;SDS011;1442;47.448;8.582;2023-01-15T00:06:34;3.33;;;2.08;;
2868;SDS011;1442;47.448;8.582;2023-01-15T00:09:01;5.10;;;2.30;;
2868;SDS011;1442;47.448;8.582;2023-01-15T00:11:28;6.57;;;2.30;;
2868;SDS011;1442;47.448;8.582;2023-01-15T00:13:55;4.85;;;2.50;;
2868;SDS011;1442;47.448;8.582;2023-01-15T00:16:23;4.60;;;2.10;;
2868;SDS011;1442;47.448;8.582;2023-01-15T00:18:52;3.30;;;2.17;;
2868;SDS011;1442;47.448;8.582;2023-01-15T00:21:20;5.07;;;2.70;;
2868;SDS011;1442;47.448;8.582;2023-01-15T00:23:47;7.40;;;2.05;;
2868;SDS011;1442;47.448;8.582;2023-01-15T00:26:33;3.08;;;2.00;;
2868;SDS011;1442;47.448;8.582;2023-01-15T00:29:18;4.72;;;1.65;;
2868;SDS011;1442;47.448;8.582;2023-01-15T00:31:50;2.25;;;1.30;;
2868;SDS011;1442;47.448;8.582;2023-01-15T00:34:19;2.38;;;1.25;;
2868;SDS011;1442;47.448;8.582;2023-01-15T00:36:46;3.00;;;1.38;;
2868;SDS011;1442;47.448;8.582;2023-01-15T00:39:13;1.30;;;1.10;;
2868;SDS011;1442;47.448;8.582;2023-01-15T00:41:40;1.45;;;0.90;;
2868;SDS011;1442;47.448;8.582;2023-01-15T00:44:07;1.90;;;0.80;;
2868;SDS011;1442;47.448;8.582;2023-01-15T00:46:35;1.73;;;0.70;;
2868;SDS011;1442;47.448;8.582;2023-01-15T00:49:02;0.63;;;0.60;;
2868;SDS011;1442;47.448;8.582;2023-01-15T00:51:30;1.13;;;0.73;;
2868;SDS011;1442;47.448;8.582;2023-01-15T00:53:58;1.15;;;0.70;;
2868;SDS011;1442;47.448;8.582;2023-01-15T00:56:25;1.60;;;0.90;;
2868;SDS011;1442;47.448;8.582;2023-01-15T00:58:52;1.35;;;0.90;;
2868;SDS011;1442;47.448;8.582;2023-01-15T01:01:19;1.10;;;0.57;;
2868;SDS011;1442;47.448;8.582;2023-01-15T01:03:47;0.63;;;0.63;;
2868;SDS011;1442;47.448;8.582;2023-01-15T01:06:16;0.68;;;0.68;;
2868;SDS011;1442;47.448;8.582;2023-01-15T01:08:45;1.30;;;0.75;;
2868;SDS011;1442;47.448;8.582;2023-01-15T01:11:13;1.17;;;0.70;;
2868;SDS011;1442;47.448;8.582;2023-01-15T01:13:41;0.98;;;0.73;;
2868;SDS011;1442;47.448;8.582;2023-01-15T01:16:19;0.70;;;0.70;;
2868;SDS011;1442;47.448;8.582;2023-01-15T01:18:47;1.20;;;0.93;;
2868;SDS011;1442;47.448;8.582;2023-01-15T01:21:14;0.95;;;0.60;;
2868;SDS011;1442;47.448;8.582;2023-01-15T01:23:42;0.77;;;0.60;;
2868;SDS011;1442;47.448;8.582;2023-01-15T01:26:10;1.50;;;0.75;;
2868;SDS011;1442;47.448;8.582;2023-01-15T01:28:38;1.58;;;0.90;;
2868;SDS011;1442;47.448;8.582;2023-01-15T01:31:05;1.52;;;0.65;;
2868;SDS011;1442;47.448;8.582;2023-01-15T01:33:33;1.55;;;0.63;;
2868;SDS011;1442;47.448;8.582;2023-01-15T01:36:00;0.80;;;0.60;;
2868;SDS011;1442;47.448;8.582;2023-01-15T01:38:27;1.25;;;0.65;;
2868;SDS011;1442;47.448;8.582;2023-01-15T01:40:54;1.02;;;0.77;;
2868;SDS011;1442;47.448;8.582;2023-01-15T01:43:23;2.05;;;0.50;;
2868;SDS011;1442;47.448;8.582;2023-01-15T01:45:51;1.80;;;0.70;;
2868;SDS011;1442;47.448;8.582;2023-01-15T01:48:19;2.00;;;0.50;;
2868;SDS011;1442;47.448;8.582;2023-01-15T01:50:47;0.60;;;0.45;;
2868;SDS011;1442;47.448;8.582;2023-01-15T01:53:16;0.63;;;0.60;;
2868;SDS011;1442;47.448;8.582;2023-01-15T01:55:44;1.23;;;0.70;;
2868;SDS011;1442;47.448;8.582;2023-01-15T01:58:12;0.52;;;0.52;;
2868;SDS011;1442;47.448;8.582;2023-01-15T02:00:43;1.40;;;0.60;;
2868;SDS011;1442;47.448;8.582;2023-01-15T02:03:10;1.45;;;0.60;;
2868;SDS011;1442;47.448;8.582;2023-01-15T02:05:38;0.90;;;0.60;;
2868;SDS011;1442;47.448;8.582;2023-01-15T02:08:06;0.50;;;0.50;;
2868;SDS011;1442;47.448;8.582;2023-01-15T02:10:33;0.75;;;0.47;;
2868;SDS011;1442;47.448;8.582;2023-01-15T02:13:02;1.33;;;0.60;;
2868;SDS011;1442;47.448;8.582;2023-01-15T02:15:31;1.20;;;0.60;;
2868;SDS011;1442;47.448;8.582;2023-01-15T02:18:03;1.35;;;0.45;;
2868;SDS011;1442;47.448;8.582;2023-01-15T02:20:33;1.42;;;0.77;;
2868;SDS011;1442;47.448;8.582;2023-01-15T02:23:09;0.65;;;0.50;;
2868;SDS011;1442;47.448;8.582;2023-01-15T02:25:42;1.63;;;0.63;;
2868;SDS011;1442;47.448;8.582;2023-01-15T02:28:20;0.68;;;0.63;;
2868;SDS011;1442;47.448;8.582;2023-01-15T02:30:49;0.70;;;0.55;;
2868;SDS011;1442;47.448;8.582;2023-01-15T02:33:20;0.55;;;0.35;;
2868;SDS011;1442;47.448;8.582;2023-01-15T02:35:51;0.50;;;0.47;;
2868;SDS011;1442;47.448;8.582;2023-01-15T02:38:21;0.50;;;0.50;;
2868;SDS011;1442;47.448;8.582;2023-01-15T02:40:51;0.52;;;0.50;;
2868;SDS011;1442;47.448;8.582;2023-01-15T02:43:21;1.95;;;0.70;;
2868;SDS011;1442;47.448;8.582;2023-01-15T02:45:50;0.75;;;0.63;;
2868;SDS011;1442;47.448;8.582;2023-01-15T02:48:19;0.90;;;0.80;;
2868;SDS011;1442;47.448;8.582;2023-01-15T02:50:49;1.17;;;0.82;;
2868;SDS011;1442;47.448;8.582;2023-01-15T02:53:19;0.70;;;0.60;;
2868;SDS011;1442;47.448;8.582;2023-01-15T02:55:49;0.55;;;0.55;;
2868;SDS011;1442;47.448;8.582;2023-01-15T02:58:18;0.73;;;0.73;;
2868;SDS011;1442;47.448;8.582;2023-01-15T03:00:48;0.65;;;0.60;;
2868;SDS011;1442;47.448;8.582;2023-01-15T03:03:17;0.90;;;0.60;;
2868;SDS011;1442;47.448;8.582;2023-01-15T03:05:47;0.80;;;0.65;;
2868;SDS011;1442;47.448;8.582;2023-01-15T03:08:17;0.60;;;0.57;;
2868;SDS011;1442;47.448;8.582;2023-01-15T03:10:46;1.98;;;0.75;;
2868;SDS011;1442;47.448;8.582;2023-01-15T03:13:15;1.67;;;0.50;;
2868;SDS011;1442;47.448;8.582;2023-01-15T03:15:46;0.75;;;0.55;;
2868;SDS011;1442;47.448;8.582;2023-01-15T03:18:37;2.17;;;0.70;;
2868;SDS011;1442;47.448;8.582;2023-01-15T03:21:08;3.53;;;0.68;;
2868;SDS011;1442;47.448;8.582;2023-01-15T03:23:38;0.75;;;0.60;;
2868;SDS011;1442;47.448;8.582;2023-01-15T03:26:06;1.85;;;0.55;;
2868;SDS011;1442;47.448;8.582;2023-01-15T03:28:34;1.88;;;0.70;;
2868;SDS011;1442;47.448;8.582;2023-01-15T03:31:02;1.27;;;0.68;;
2868;SDS011;1442;47.448;8.582;2023-01-15T03:33:29;0.90;;;0.68;;
2868;SDS011;1442;47.448;8.582;2023-01-15T03:35:59;1.33;;;0.60;;
2868;SDS011;1442;47.448;8.582;2023-01-15T03:38:26;1.00;;;0.45;;
2868;SDS011;1442;47.448;8.582;2023-01-15T03:40:57;1.73;;;0.50;;
2868;SDS011;1442;47.448;8.582;2023-01-15T03:43:28;0.63;;;0.63;;
2868;SDS011;1442;47.448;8.582;2023-01-15T03:46:11;1.10;;;0.77;;
2868;SDS011;1442;47.448;8.582;2023-01-15T03:48:41;1.50;;;0.77;;
2868;SDS011;1442;47.448;8.582;2023-01-15T03:51:12;1.42;;;0.60;;
2868;SDS011;1442;47.448;8.582;2023-01-15T03:53:43;0.52;;;0.50;;
2868;SDS011;1442;47.448;8.582;2023-01-15T03:56:12;2.47;;;0.60;;
2868;SDS011;1442;47.448;8.582;2023-01-15T03:58:41;0.75;;;0.60;;
2868;SDS011;1442;47.448;8.582;2023-01-15T04:01:10;0.70;;;0.70;;
2868;SDS011;1442;47.448;8.582;2023-01-15T04:03:39;0.98;;;0.65;;
2868;SDS011;1442;47.448;8.582;2023-01-15T04:06:06;1.27;;;0.90;;
2868;SDS011;1442;47.448;8.582;2023-01-15T04:08:37;1.15;;;0.60;;
2868;SDS011;1442;47.448;8.582;2023-01-15T04:11:05;2.05;;;0.70;;
2868;SDS011;1442;47.448;8.582;2023-01-15T04:13:32;0.93;;;0.68;;
2868;SDS011;1442;47.448;8.582;2023-01-15T04:15:59;0.45;;;0.40;;
2868;SDS011;1442;47.448;8.582;2023-01-15T04:18:26;2.28;;;0.60;;
2868;SDS011;1442;47.448;8.582;2023-01-15T04:20:54;1.15;;;0.80;;
2868;SDS011;1442;47.448;8.582;2023-01-15T04:23:21;1.52;;;0.77;;
2868;SDS011;1442;47.448;8.582;2023-01-15T04:25:50;1.20;;;0.63;;
2868;SDS011;1442;47.448;8.582;2023-01-15T04:28:17;0.85;;;0.60;;
2868;SDS011;1442;47.448;8.582;2023-01-15T04:30:44;0.60;;;0.60;;
2868;SDS011;1442;47.448;8.582;2023-01-15T04:33:11;1.35;;;0.70;;
2868;SDS011;1442;47.448;8.582;2023-01-15T04:35:38;2.65;;;0.63;;
2868;SDS011;1442;47.448;8.582;2023-01-15T04:38:05;1.95;;;0.80;;
2868;SDS011;1442;47.448;8.582;2023-01-15T04:40:32;0.77;;;0.60;;
2868;SDS011;1442;47.448;8.582;2023-01-15T04:43:18;2.33;;;0.50;;
2868;SDS011;1442;47.448;8.582;2023-01-15T04:46:03;4.53;;;0.93;;
2868;SDS011;1442;47.448;8.582;2023-01-15T04:48:30;4.50;;;0.80;;
2868;SDS011;1442;47.448;8.582;2023-01-15T04:51:00;1.65;;;0.80;;
2868;SDS011;1442;47.448;8.582;2023-01-15T04:53:28;0.80;;;0.50;;
2868;SDS011;1442;47.448;8.582;2023-01-15T04:55:58;0.60;;;0.60;;
2868;SDS011;1442;47.448;8.582;2023-01-15T04:58:27;0.70;;;0.70;;
2868;SDS011;1442;47.448;8.582;2023-01-15T05:00:54;0.60;;;0.60;;
2868;SDS011;1442;47.448;8.582;2023-01-15T05:03:22;0.90;;;0.57;;
2868;SDS011;1442;47.448;8.582;2023-01-15T05:05:49;1.27;;;0.68;;
2868;SDS011;1442;47.448;8.582;2023-01-15T05:08:16;0.68;;;0.65;;
2868;SDS011;1442;47.448;8.582;2023-01-15T05:10:43;3.90;;;0.77;;
2868;SDS011;1442;47.448;8.582;2023-01-15T05:13:10;0.52;;;0.50;;
2868;SDS011;1442;47.448;8.582;2023-01-15T05:15:39;1.50;;;0.77;;
2868;SDS011;1442;47.448;8.582;2023-01-15T05:18:06;0.68;;;0.50;;
2868;SDS011;1442;47.448;8.582;2023-01-15T05:20:39;0.80;;;0.73;;
2868;SDS011;1442;47.448;8.582;2023-01-15T05:23:06;0.65;;;0.50;;
2868;SDS011;1442;47.448;8.582;2023-01-15T05:25:34;0.70;;;0.60;;
2868;SDS011;1442;47.448;8.582;2023-01-15T05:28:02;0.75;;;0.60;;
2868;SDS011;1442;47.448;8.582;2023-01-15T05:30:29;0.80;;;0.50;;
2868;SDS011;1442;47.448;8.582;2023-01-15T05:32:57;0.68;;;0.50;;
2868;SDS011;1442;47.448;8.582;2023-01-15T05:35:24;1.88;;;0.70;;
2868;SDS011;1442;47.448;8.582;2023-01-15T05:37:52;1.65;;;0.55;;
2868;SDS011;1442;47.448;8.582;2023-01-15T05:40:19;0.88;;;0.57;;
2868;SDS011;1442;47.448;8.582;2023-01-15T05:42:46;1.17;;;0.65;;
2868;SDS011;1442;47.448;8.582;2023-01-15T05:45:13;1.42;;;0.82;;
2868;SDS011;1442;47.448;8.582;2023-01-15T05:47:40;0.90;;;0.57;;
2868;SDS011;1442;47.448;8.582;2023-01-15T05:50:09;1.00;;;0.70;;
2868;SDS011;1442;47.448;8.582;2023-01-15T05:52:37;0.50;;;0.50;;
2868;SDS011;1442;47.448;8.582;2023-01-15T05:55:04;0.63;;;0.50;;
2868;SDS011;1442;47.448;8.582;2023-01-15T05:57:31;0.75;;;0.68;;
2868;SDS011;1442;47.448;8.582;2023-01-15T05:59:58;0.80;;;0.70;;
2868;SDS011;1442;47.448;8.582;2023-01-15T06:02:26;1.77;;;0.60;;
2868;SDS011;1442;47.448;8.582;2023-01-15T06:04:53;0.82;;;0.52;;
2868;SDS011;1442;47.448;8.582;2023-01-15T06:07:21;2.05;;;0.70;;
2868;SDS011;1442;47.448;8.582;2023-01-15T06:09:48;1.80;;;0.63;;
2868;SDS011;1442;47.448;8.582;2023-01-15T06:12:15;1.20;;;0.70;;
2868;SDS011;1442;47.448;8.582;2023-01-15T06:14:42;0.80;;;0.60;;
2868;SDS011;1442;47.448;8.582;2023-01-15T06:17:10;0.88;;;0.60;;
2868;SDS011;1442;47.448;8.582;2023-01-15T06:19:39;0.98;;;0.60;;
2868;SDS011;1442;47.448;8.582;2023-01-15T06:22:06;1.13;;;0.47;;
2868;SDS011;1442;47.448;8.582;2023-01-15T06:24:34;0.60;;;0.47;;
2868;SDS011;1442;47.448;8.582;2023-01-15T06:27:02;2.47;;;0.60;;
2868;SDS011;1442;47.448;8.582;2023-01-15T06:29:29;0.63;;;0.63;;
2868;SDS011;1442;47.448;8.582;2023-01-15T06:31:56;1.75;;;0.73;;
2868;SDS011;1442;47.448;8.582;2023-01-15T06:34:23;1.00;;;0.90;;
2868;SDS011;1442;47.448;8.582;2023-01-15T06:36:50;0.73;;;0.63;;
2868;SDS011;1442;47.448;8.582;2023-01-15T06:39:17;1.13;;;0.70;;
2868;SDS011;1442;47.448;8.582;2023-01-15T06:41:46;1.00;;;0.80;;
2868;SDS011;1442;47.448;8.582;2023-01-15T06:44:30;1.17;;;1.08;;
2868;SDS011;1442;47.448;8.582;2023-01-15T06:47:16;1.15;;;0.70;;
2868;SDS011;1442;47.448;8.582;2023-01-15T06:49:46;1.00;;;0.65;;
2868;SDS011;1442;47.448;8.582;2023-01-15T06:52:14;2.35;;;0.90;;
2868;SDS011;1442;47.448;8.582;2023-01-15T06:54:41;0.75;;;0.40;;
2868;SDS011;1442;47.448;8.582;2023-01-15T06:57:09;3.65;;;0.90;;
2868;SDS011;1442;47.448;8.582;2023-01-15T06:59:37;0.65;;;0.65;;
2868;SDS011;1442;47.448;8.582;2023-01-15T07:02:04;0.57;;;0.55;;
2868;SDS011;1442;47.448;8.582;2023-01-15T07:04:31;3.10;;;1.40;;
2868;SDS011;1442;47.448;8.582;2023-01-15T07:06:58;1.55;;;0.90;;
2868;SDS011;1442;47.448;8.582;2023-01-15T07:09:25;1.75;;;0.68;;
2868;SDS011;1442;47.448;8.582;2023-01-15T07:11:52;2.83;;;0.77;;
2868;SDS011;1442;47.448;8.582;2023-01-15T07:14:21;2.13;;;1.30;;
2868;SDS011;1442;47.448;8.582;2023-01-15T07:16:49;3.78;;;1.40;;
2868;SDS011;1442;47.448;8.582;2023-01-15T07:19:17;1.92;;;1.30;;
2868;SDS011;1442;47.448;8.582;2023-01-15T07:21:44;0.70;;;0.60;;
2868;SDS011;1442;47.448;8.582;2023-01-15T07:24:12;0.68;;;0.55;;
2868;SDS011;1442;47.448;8.582;2023-01-15T07:26:40;0.63;;;0.60;;
2868;SDS011;1442;47.448;8.582;2023-01-15T07:29:07;3.60;;;0.57;;
2868;SDS011;1442;47.448;8.582;2023-01-15T07:31:36;0.90;;;0.70;;
2868;SDS011;1442;47.448;8.582;2023-01-15T07:34:03;1.90;;;0.70;;
2868;SDS011;1442;47.448;8.582;2023-01-15T07:36:30;0.80;;;0.80;;
2868;SDS011;1442;47.448;8.582;2023-01-15T07:38:57;1.23;;;0.60;;
2868;SDS011;1442;47.448;8.582;2023-01-15T07:41:24;0.70;;;0.50;;
2868;SDS011;1442;47.448;8.582;2023-01-15T07:44:09;0.50;;;0.50;;
2868;SDS011;1442;47.448;8.582;2023-01-15T07:46:56;4.03;;;0.70;;
2868;SDS011;1442;47.448;8.582;2023-01-15T07:49:41;0.45;;;0.45;;
2868;SDS011;1442;47.448;8.582;2023-01-15T07:52:12;4.78;;;0.55;;
2868;SDS011;1442;47.448;8.582;2023-01-15T07:54:39;0.60;;;0.40;;
2868;SDS011;1442;47.448;8.582;2023-01-15T07:57:07;1.75;;;0.40;;
2868;SDS011;1442;47.448;8.582;2023-01-15T07:59:34;0.52;;;0.43;;
2868;SDS011;1442;47.448;8.582;2023-01-15T08:02:03;0.63;;;0.40;;
2868;SDS011;1442;47.448;8.582;2023-01-15T08:04:30;1.48;;;0.60;;
2868;SDS011;1442;47.448;8.582;2023-01-15T08:06:57;0.43;;;0.43;;
2868;SDS011;1442;47.448;8.582;2023-01-15T08:09:25;1.70;;;0.70;;
2868;SDS011;1442;47.448;8.582;2023-01-15T08:11:52;0.85;;;0.55;;
2868;SDS011;1442;47.448;8.582;2023-01-15T08:14:37;1.35;;;1.02;;
2868;SDS011;1442;47.448;8.582;2023-01-15T08:17:23;0.95;;;0.70;;
2868;SDS011;1442;47.448;8.582;2023-01-15T08:19:50;0.70;;;0.50;;
2868;SDS011;1442;47.448;8.582;2023-01-15T08:22:17;0.73;;;0.52;;
2868;SDS011;1442;47.448;8.582;2023-01-15T08:24:45;0.43;;;0.43;;
2868;SDS011;1442;47.448;8.582;2023-01-15T08:27:12;0.80;;;0.50;;
2868;SDS011;1442;47.448;8.582;2023-01-15T08:29:39;0.40;;;0.40;;
2868;SDS011;1442;47.448;8.582;2023-01-15T08:32:06;0.90;;;0.60;;
2868;SDS011;1442;47.448;8.582;2023-01-15T08:34:35;0.50;;;0.47;;
2868;SDS011;1442;47.448;8.582;2023-01-15T08:37:02;0.43;;;0.43;;
2868;SDS011;1442;47.448;8.582;2023-01-15T08:39:29;4.78;;;0.30;;
2868;SDS011;1442;47.448;8.582;2023-01-15T08:41:56;0.30;;;0.20;;
2868;SDS011;1442;47.448;8.582;2023-01-15T08:44:24;0.35;;;0.30;;
2868;SDS011;1442;47.448;8.582;2023-01-15T08:46:51;0.20;;;0.20;;
2868;SDS011;1442;47.448;8.582;2023-01-15T08:49:19;0.20;;;0.20;;
2868;SDS011;1442;47.448;8.582;2023-01-15T08:51:47;0.50;;;0.30;;
2868;SDS011;1442;47.448;8.582;2023-01-15T08:54:16;0.30;;;0.30;;
2868;SDS011;1442;47.448;8.582;2023-01-15T08:56:43;1.85;;;0.20;;
2868;SDS011;1442;47.448;8.582;2023-01-15T08:59:10;0.20;;;0.20;;
2868;SDS011;1442;47.448;8.582;2023-01-15T09:01:38;0.20;;;0.20;;
2868;SDS011;1442;47.448;8.582;2023-01-15T09:04:05;0.43;;;0.25;;
2868;SDS011;1442;47.448;8.582;2023-01-15T09:06:33;0.28;;;0.28;;
2868;SDS011;1442;47.448;8.582;2023-01-15T09:09:01;0.20;;;0.20;;
2868;SDS011;1442;47.448;8.582;2023-01-15T09:11:28;0.20;;;0.20;;
2868;SDS011;1442;47.448;8.582;2023-01-15T09:13:55;0.30;;;0.30;;
2868;SDS011;1442;47.448;8.582;2023-01-15T09:16:23;0.55;;;0.55;;
2868;SDS011;1442;47.448;8.582;2023-01-15T09:18:51;0.30;;;0.30;;
2868;SDS011;1442;47.448;8.582;2023-01-15T09:21:19;0.90;;;0.40;;
2868;SDS011;1442;47.448;8.582;2023-01-15T09:23:46;0.20;;;0.20;;
2868;SDS011;1442;47.448;8.582;2023-01-15T09:26:22;0.20;;;0.20;;
2868;SDS011;1442;47.448;8.582;2023-01-15T09:28:50;0.20;;;0.20;;
2868;SDS011;1442;47.448;8.582;2023-01-15T09:31:18;0.20;;;0.20;;
2868;SDS011;1442;47.448;8.582;2023-01-15T09:33:45;0.10;;;0.10;;
2868;SDS011;1442;47.448;8.582;2023-01-15T09:36:14;0.20;;;0.20;;
2868;SDS011;1442;47.448;8.582;2023-01-15T09:38:41;0.20;;;0.20;;
2868;SDS011;1442;47.448;8.582;2023-01-15T09:41:09;0.20;;;0.20;;
2868;SDS011;1442;47.448;8.582;2023-01-15T09:44:01;0.20;;;0.20;;
2868;SDS011;1442;47.448;8.582;2023-01-15T09:46:33;0.20;;;0.20;;
2868;SDS011;1442;47.448;8.582;2023-01-15T09:49:04;0.20;;;0.20;;
2868;SDS011;1442;47.448;8.582;2023-01-15T09:51:37;0.20;;;0.20;;
2868;SDS011;1442;47.448;8.582;2023-01-15T09:56:35;0.15;;;0.15;;
2868;SDS011;1442;47.448;8.582;2023-01-15T09:59:08;0.20;;;0.20;;
2868;SDS011;1442;47.448;8.582;2023-01-15T10:01:40;0.25;;;0.25;;
2868;SDS011;1442;47.448;8.582;2023-01-15T10:04:11;1.88;;;0.35;;
2868;SDS011;1442;47.448;8.582;2023-01-15T10:06:40;0.20;;;0.20;;
2868;SDS011;1442;47.448;8.582;2023-01-15T10:09:10;0.17;;;0.17;;
2868;SDS011;1442;47.448;8.582;2023-01-15T10:11:39;0.30;;;0.30;;
2868;SDS011;1442;47.448;8.582;2023-01-15T10:14:33;0.20;;;0.20;;
2868;SDS011;1442;47.448;8.582;2023-01-15T10:17:03;0.30;;;0.28;;
2868;SDS011;1442;47.448;8.582;2023-01-15T10:19:31;0.47;;;0.20;;
2868;SDS011;1442;47.448;8.582;2023-01-15T10:21:59;0.55;;;0.40;;
2868;SDS011;1442;47.448;8.582;2023-01-15T10:24:30;0.75;;;0.30;;
2868;SDS011;1442;47.448;8.582;2023-01-15T10:27:00;1.50;;;0.45;;
2868;SDS011;1442;47.448;8.582;2023-01-15T10:29:31;0.95;;;0.55;;
2868;SDS011;1442;47.448;8.582;2023-01-15T10:32:04;0.80;;;0.60;;
2868;SDS011;1442;47.448;8.582;2023-01-15T10:34:55;0.63;;;0.60;;
2868;SDS011;1442;47.448;8.582;2023-01-15T10:37:25;0.63;;;0.60;;
2868;SDS011;1442;47.448;8.582;2023-01-15T10:39:58;0.40;;;0.40;;
2868;SDS011;1442;47.448;8.582;2023-01-15T10:42:31;0.77;;;0.60;;
2868;SDS011;1442;47.448;8.582;2023-01-15T10:45:06;0.40;;;0.40;;
2868;SDS011;1442;47.448;8.582;2023-01-15T10:47:38;1.38;;;1.27;;
2868;SDS011;1442;47.448;8.582;2023-01-15T10:50:12;3.50;;;0.60;;
2868;SDS011;1442;47.448;8.582;2023-01-15T10:52:41;1.40;;;1.00;;
2868;SDS011;1442;47.448;8.582;2023-01-15T10:55:13;0.70;;;0.70;;
2868;SDS011;1442;47.448;8.582;2023-01-15T10:57:43;1.88;;;0.60;;
2868;SDS011;1442;47.448;8.582;2023-01-15T11:00:14;0.40;;;0.40;;
2868;SDS011;1442;47.448;8.582;2023-01-15T11:02:43;0.50;;;0.50;;
2868;SDS011;1442;47.448;8.582;2023-01-15T11:05:11;0.68;;;0.68;;
2868;SDS011;1442;47.448;8.582;2023-01-15T11:07:40;0.52;;;0.50;;
2868;SDS011;1442;47.448;8.582;2023-01-15T11:10:11;3.10;;;0.50;;
2868;SDS011;1442;47.448;8.582;2023-01-15T11:12:39;0.40;;;0.40;;
2868;SDS011;1442;47.448;8.582;2023-01-15T11:15:24;1.65;;;0.50;;
2868;SDS011;1442;47.448;8.582;2023-01-15T11:18:15;1.65;;;0.70;;
2868;SDS011;1442;47.448;8.582;2023-01-15T11:21:01;0.50;;;0.50;;
2868;SDS011;1442;47.448;8.582;2023-01-15T11:23:28;0.50;;;0.50;;
2868;SDS011;1442;47.448;8.582;2023-01-15T11:26:00;0.68;;;0.60;;
2868;SDS011;1442;47.448;8.582;2023-01-15T11:28:29;0.82;;;0.68;;
2868;SDS011;1442;47.448;8.582;2023-01-15T11:30:59;0.63;;;0.60;;
2868;SDS011;1442;47.448;8.582;2023-01-15T11:33:28;0.40;;;0.40;;
2868;SDS011;1442;47.448;8.582;2023-01-15T11:35:57;1.25;;;0.57;;
2868;SDS011;1442;47.448;8.582;2023-01-15T11:38:25;1.65;;;0.50;;
2868;SDS011;1442;47.448;8.582;2023-01-15T11:40:52;1.08;;;0.68;;
2868;SDS011;1442;47.448;8.582;2023-01-15T11:43:21;0.80;;;0.50;;
2868;SDS011;1442;47.448;8.582;2023-01-15T11:46:18;0.68;;;0.68;;
2868;SDS011;1442;47.448;8.582;2023-01-15T11:49:08;1.17;;;0.88;;
2868;SDS011;1442;47.448;8.582;2023-01-15T11:51:53;1.15;;;1.05;;
2868;SDS011;1442;47.448;8.582;2023-01-15T11:54:23;1.42;;;1.02;;
2868;SDS011;1442;47.448;8.582;2023-01-15T11:56:51;0.80;;;0.80;;
2868;SDS011;1442;47.448;8.582;2023-01-15T11:59:18;0.90;;;0.65;;
2868;SDS011;1442;47.448;8.582;2023-01-15T12:01:49;1.15;;;0.60;;
2868;SDS011;1442;47.448;8.582;2023-01-15T12:04:26;3.22;;;1.77;;
2868;SDS011;1442;47.448;8.582;2023-01-15T12:06:53;2.83;;;0.80;;
2868;SDS011;1442;47.448;8.582;2023-01-15T12:09:23;0.95;;;0.80;;
2868;SDS011;1442;47.448;8.582;2023-01-15T12:11:56;1.02;;;0.70;;
2868;SDS011;1442;47.448;8.582;2023-01-15T12:14:30;1.77;;;0.80;;
2868;SDS011;1442;47.448;8.582;2023-01-15T12:17:01;1.20;;;0.90;;
2868;SDS011;1442;47.448;8.582;2023-01-15T12:19:35;0.85;;;0.85;;
2868;SDS011;1442;47.448;8.582;2023-01-15T12:22:11;0.65;;;0.63;;
2868;SDS011;1442;47.448;8.582;2023-01-15T12:24:52;1.33;;;0.70;;
2868;SDS011;1442;47.448;8.582;2023-01-15T12:27:32;0.77;;;0.73;;
2868;SDS011;1442;47.448;8.582;2023-01-15T12:30:08;1.02;;;0.70;;
2868;SDS011;1442;47.448;8.582;2023-01-15T12:32:40;2.90;;;1.85;;
2868;SDS011;1442;47.448;8.582;2023-01-15T12:35:13;2.38;;;0.98;;
2868;SDS011;1442;47.448;8.582;2023-01-15T12:37:43;0.70;;;0.70;;
2868;SDS011;1442;47.448;8.582;2023-01-15T12:40:16;1.00;;;0.65;;
2868;SDS011;1442;47.448;8.582;2023-01-15T12:42:45;2.00;;;0.50;;
2868;SDS011;1442;47.448;8.582;2023-01-15T12:45:32;1.98;;;0.85;;
2868;SDS011;1442;47.448;8.582;2023-01-15T12:48:01;0.60;;;0.60;;
2868;SDS011;1442;47.448;8.582;2023-01-15T12:50:33;3.72;;;0.63;;
2868;SDS011;1442;47.448;8.582;2023-01-15T12:53:05;0.68;;;0.40;;
2868;SDS011;1442;47.448;8.582;2023-01-15T12:58:02;0.40;;;0.40;;
2868;SDS011;1442;47.448;8.582;2023-01-15T13:00:32;0.55;;;0.35;;
2868;SDS011;1442;47.448;8.582;2023-01-15T13:03:04;0.75;;;0.50;;
2868;SDS011;1442;47.448;8.582;2023-01-15T13:05:38;1.08;;;0.32;;
2868;SDS011;1442;47.448;8.582;2023-01-15T13:08:07;0.38;;;0.38;;
2868;SDS011;1442;47.448;8.582;2023-01-15T13:10:37;0.38;;;0.35;;
2868;SDS011;1442;47.448;8.582;2023-01-15T13:13:10;1.33;;;0.40;;
2868;SDS011;1442;47.448;8.582;2023-01-15T13:15:39;0.68;;;0.50;;
2868;SDS011;1442;47.448;8.582;2023-01-15T13:18:09;0.50;;;0.50;;
2868;SDS011;1442;47.448;8.582;2023-01-15T13:20:43;1.80;;;0.40;;
2868;SDS011;1442;47.448;8.582;2023-01-15T13:23:17;2.38;;;0.90;;
2868;SDS011;1442;47.448;8.582;2023-01-15T13:25:53;0.60;;;0.50;;
2868;SDS011;1442;47.448;8.582;2023-01-15T13:28:31;2.40;;;0.60;;
2868;SDS011;1442;47.448;8.582;2023-01-15T13:31:03;1.27;;;0.60;;
2868;SDS011;1442;47.448;8.582;2023-01-15T13:33:32;1.80;;;1.10;;
2868;SDS011;1442;47.448;8.582;2023-01-15T13:36:05;0.90;;;0.70;;
2868;SDS011;1442;47.448;8.582;2023-01-15T13:38:36;0.70;;;0.57;;
2868;SDS011;1442;47.448;8.582;2023-01-15T13:41:05;4.07;;;1.10;;
2868;SDS011;1442;47.448;8.582;2023-01-15T13:43:33;0.40;;;0.40;;
2868;SDS011;1442;47.448;8.582;2023-01-15T13:46:03;0.47;;;0.38;;
2868;SDS011;1442;47.448;8.582;2023-01-15T13:48:32;1.65;;;0.45;;
2868;SDS011;1442;47.448;8.582;2023-01-15T13:51:01;0.50;;;0.50;;
2868;SDS011;1442;47.448;8.582;2023-01-15T13:53:31;2.70;;;0.70;;
2868;SDS011;1442;47.448;8.582;2023-01-15T13:56:00;1.25;;;0.60;;
2868;SDS011;1442;47.448;8.582;2023-01-15T13:58:30;0.65;;;0.65;;
2868;SDS011;1442;47.448;8.582;2023-01-15T14:01:05;0.30;;;0.30;;
2868;SDS011;1442;47.448;8.582;2023-01-15T14:03:33;0.40;;;0.40;;
2868;SDS011;1442;47.448;8.582;2023-01-15T14:06:02;0.30;;;0.30;;
2868;SDS011;1442;47.448;8.582;2023-01-15T14:08:37;4.95;;;1.85;;
2868;SDS011;1442;47.448;8.582;2023-01-15T14:11:04;1.85;;;1.08;;
2868;SDS011;1442;47.448;8.582;2023-01-15T14:13:39;0.82;;;0.60;;
2868;SDS011;1442;47.448;8.582;2023-01-15T14:16:12;1.52;;;0.93;;
2868;SDS011;1442;47.448;8.582;2023-01-15T14:21:30;0.90;;;0.60;;
2868;SDS011;1442;47.448;8.582;2023-01-15T14:24:16;1.25;;;0.50;;
2868;SDS011;1442;47.448;8.582;2023-01-15T14:26:48;1.00;;;0.43;;
2868;SDS011;1442;47.448;8.582;2023-01-15T14:29:26;0.80;;;0.63;;
2868;SDS011;1442;47.448;8.582;2023-01-15T14:31:57;1.25;;;0.95;;
2868;SDS011;1442;47.448;8.582;2023-01-15T14:34:26;3.30;;;0.60;;
2868;SDS011;1442;47.448;8.582;2023-01-15T14:36:55;0.47;;;0.40;;
2868;SDS011;1442;47.448;8.582;2023-01-15T14:39:28;0.70;;;0.60;;
2868;SDS011;1442;47.448;8.582;2023-01-15T14:41:57;0.90;;;0.80;;
2868;SDS011;1442;47.448;8.582;2023-01-15T14:44:44;2.10;;;1.67;;
2868;SDS011;1442;47.448;8.582;2023-01-15T14:47:17;0.88;;;0.75;;
2868;SDS011;1442;47.448;8.582;2023-01-15T14:49:45;1.00;;;0.60;;
2868;SDS011;1442;47.448;8.582;2023-01-15T14:52:14;0.50;;;0.50;;
2868;SDS011;1442;47.448;8.582;2023-01-15T14:54:43;1.73;;;0.90;;
2868;SDS011;1442;47.448;8.582;2023-01-15T14:57:11;0.60;;;0.60;;
2868;SDS011;1442;47.448;8.582;2023-01-15T14:59:40;3.70;;;1.23;;
2868;SDS011;1442;47.448;8.582;2023-01-15T15:02:13;4.72;;;1.27;;
2868;SDS011;1442;47.448;8.582;2023-01-15T15:04:42;2.88;;;1.20;;
2868;SDS011;1442;47.448;8.582;2023-01-15T15:07:11;1.92;;;0.98;;
2868;SDS011;1442;47.448;8.582;2023-01-15T15:09:39;0.88;;;0.55;;
2868;SDS011;1442;47.448;8.582;2023-01-15T15:12:16;0.80;;;0.75;;
2868;SDS011;1442;47.448;8.582;2023-01-15T15:14:48;1.63;;;0.52;;
2868;SDS011;1442;47.448;8.582;2023-01-15T15:17:19;1.42;;;0.75;;
2868;SDS011;1442;47.448;8.582;2023-01-15T15:19:50;1.08;;;1.00;;
2868;SDS011;1442;47.448;8.582;2023-01-15T15:22:21;1.63;;;0.93;;
2868;SDS011;1442;47.448;8.582;2023-01-15T15:24:52;2.70;;;1.17;;
2868;SDS011;1442;47.448;8.582;2023-01-15T15:27:22;0.98;;;0.77;;
2868;SDS011;1442;47.448;8.582;2023-01-15T15:29:49;1.00;;;0.70;;
2868;SDS011;1442;47.448;8.582;2023-01-15T15:32:17;1.85;;;0.70;;
2868;SDS011;1442;47.448;8.582;2023-01-15T15:34:45;1.00;;;0.60;;
2868;SDS011;1442;47.448;8.582;2023-01-15T15:37:15;0.88;;;0.75;;
2868;SDS011;1442;47.448;8.582;2023-01-15T15:39:44;0.47;;;0.47;;
2868;SDS011;1442;47.448;8.582;2023-01-15T15:42:14;2.22;;;0.57;;